Sherman, TX (75090)

8:13 AM CST on December 04, 2016 (GMT -0600)
Rivercrest | | Change Station

Elev 758 ft 33.66 °N, 96.63 °W | Updated 6 seconds ago

Overcast
Overcast
46.2 °F
Feels Like 46 °F
N
0.0
Wind Variable Wind from SSE
Gusts 0.0 mph

Today
High -- | Low -- °F
--% Chance of Precip.
Yesterday
High -- | Low -- °F
Precip. -- in
Pressure 30.05 in
Visibility 10.0 miles
Clouds Overcast 1300 ft
Windchill 46 °F
Dew Point 46 °F
Humidity 99%
Rainfall 0.05 in
Snow Depth Not available.
7:15 AM 5:17 PM
Waxing Crescent, 23% visible
METAR KGYI 041355Z AUTO 36007KT 10SM OVC013 08/08 A3005 RMK AO2 T00820082
Pressure 30.05 in
Visibility 10.0 miles
Clouds Overcast 1300 ft
Windchill 46 °F
Dew Point 46 °F
Humidity 99%
Rainfall 0.05 in
Snow Depth Not available.
7:15 AM 5:17 PM
Waxing Crescent, 23% visible
METAR KGYI 041355Z AUTO 36007KT 10SM OVC013 08/08 A3005 RMK AO2 T00820082

10-Day Weather Forecast

Almanac

Astronomy

Dec. 04, 2016 Rise Set
Actual Time
Civil Twilight
Nautical Twilight
Astronomical Twilight
Moon
Length of Visible Light
Length of Day
Tomorrow will be .
, % of the Moon is Illuminated

Today's Extremes

State Highs State Lows

Community

WunderPhotos

Upload Photos

1,955,598 photos uploaded!

WunderBlog® & News

Nearby

Air Quality

  Air Quality AQ Index Pollutant
Not available.

Snow Depth

Station Depth Elevation

Earthquake Activity

City Distance Mag. Time & Date
Minimum magnitude displayed is 2.5.

Coastal Water Temperatures

Place Temperature

Stations

Nearby Weather Stations

Station Location Temp. Windchill Dew Point Humidity Wind Precip. Elev Updated Type
                   

Watches & Warnings

There are currently no watches in effect.